createdAt,value
2018-09-19T00:00:39.472Z,50.27
2018-09-19T00:01:39.460Z,50.37
2018-09-19T00:02:39.470Z,50.37
2018-09-19T00:03:39.457Z,50.37
2018-09-19T00:04:39.426Z,50.37
2018-09-19T00:05:39.414Z,50.37
2018-09-19T00:06:39.404Z,50.37
2018-09-19T00:07:39.394Z,50.37
2018-09-19T00:08:39.423Z,50.27
2018-09-19T00:09:39.375Z,50.57
2018-09-19T00:10:39.359Z,50.57
2018-09-19T00:11:39.346Z,50.37
2018-09-19T00:12:39.340Z,50.27
2018-09-19T00:13:39.349Z,50.27
2018-09-19T00:14:39.332Z,50.37
2018-09-19T00:15:39.310Z,50.27
2018-09-19T00:16:39.292Z,50.37
2018-09-19T00:17:39.281Z,50.37
2018-09-19T00:18:39.292Z,50.57
2018-09-19T00:19:39.260Z,50.37
2018-09-19T00:20:39.259Z,50.27
2018-09-19T00:21:39.238Z,50.27
2018-09-19T00:22:39.227Z,50.47
2018-09-19T00:23:39.239Z,50.37
2018-09-19T00:24:39.204Z,50.37
2018-09-19T00:25:39.194Z,50.47
2018-09-19T00:26:39.204Z,50.27
2018-09-19T00:27:39.170Z,50.27
2018-09-19T00:28:39.180Z,50.27
2018-09-19T00:29:39.147Z,50.27
2018-09-19T00:30:39.138Z,50.57
2018-09-19T00:31:39.129Z,50.27
2018-09-19T00:32:39.125Z,50.37
2018-09-19T00:33:39.127Z,50.27
2018-09-19T00:34:39.095Z,50.27
2018-09-19T00:35:39.081Z,50.37
2018-09-19T00:36:39.072Z,50.27
2018-09-19T00:37:39.058Z,50.37
2018-09-19T00:38:39.080Z,50.37
2018-09-19T00:39:39.038Z,50.27
2018-09-19T00:40:39.028Z,50.27
2018-09-19T00:41:39.015Z,50.27
2018-09-19T00:42:39.008Z,50.27
2018-09-19T00:43:39.018Z,50.37
2018-09-19T00:44:38.991Z,50.47
2018-09-19T00:45:38.979Z,50.37
2018-09-19T00:46:38.959Z,50.27
2018-09-19T00:47:38.950Z,50.27
2018-09-19T00:48:38.959Z,50.27
2018-09-19T00:49:38.925Z,50.27
2018-09-19T00:50:38.940Z,50.27
2018-09-19T00:51:38.904Z,50.07
2018-09-19T00:52:38.894Z,50.47
2018-09-19T00:53:38.901Z,50.37
2018-09-19T00:54:38.870Z,50.47
2018-09-19T00:55:38.883Z,50.17
2018-09-19T00:56:38.879Z,50.17
2018-09-19T00:57:38.837Z,50.17
2018-09-19T00:58:38.847Z,50.37
2018-09-19T00:59:38.815Z,50.37
2018-09-19T01:00:38.802Z,50.37
2018-09-19T01:01:38.802Z,50.27
2018-09-19T01:02:38.803Z,50.17
2018-09-19T01:03:38.792Z,50.17
2018-09-19T01:04:38.761Z,50.37
2018-09-19T01:05:38.751Z,50.27
2018-09-19T01:06:38.736Z,50.47
2018-09-19T01:07:38.729Z,50.17
2018-09-19T01:08:38.748Z,50.17
2018-09-19T01:09:38.716Z,50.27
2018-09-19T01:10:38.691Z,50.17
2018-09-19T01:11:38.683Z,50.47
2018-09-19T01:12:38.673Z,50.27
2018-09-19T01:13:38.680Z,50.37
2018-09-19T01:14:38.661Z,50.77
2018-09-19T01:15:38.639Z,50.27
2018-09-19T01:16:38.628Z,50.27
2018-09-19T01:17:38.635Z,50.17
2018-09-19T01:18:38.603Z,50.27
2018-09-19T01:19:38.630Z,50.27
2018-09-19T01:20:38.581Z,50.37
2018-09-19T01:21:38.581Z,50.27
2018-09-19T01:22:38.560Z,50.47
2018-09-19T01:23:38.551Z,50.17
2018-09-19T01:24:38.560Z,50.17
2018-09-19T01:25:38.536Z,50.97
2018-09-19T01:26:38.515Z,50.17
2018-09-19T01:27:38.504Z,50.17
2018-09-19T01:28:38.492Z,50.17
2018-09-19T01:29:38.503Z,50.17
2018-09-19T01:30:38.470Z,50.37
2018-09-19T01:31:38.476Z,50.27
2018-09-19T01:32:38.448Z,50.47
2018-09-19T01:33:38.436Z,50.97
2018-09-19T01:34:38.449Z,50.17
2018-09-19T01:35:38.434Z,50.17
2018-09-19T01:36:38.402Z,50.87
2018-09-19T01:37:38.407Z,50.77
2018-09-19T01:38:38.383Z,50.97
2018-09-19T01:39:38.391Z,50.17
2018-09-19T01:40:38.359Z,50.27
2018-09-19T01:41:38.349Z,50.27
2018-09-19T01:42:38.387Z,50.87
2018-09-19T01:43:38.336Z,50.97
2018-09-19T01:44:38.337Z,50.77
2018-09-19T01:45:38.305Z,51.07
2018-09-19T01:46:38.293Z,51.17
2018-09-19T01:47:38.284Z,50.87
2018-09-19T01:48:38.272Z,50.37
2018-09-19T01:49:38.299Z,50.67
2018-09-19T01:50:38.248Z,50.97
2018-09-19T01:51:38.237Z,50.97
2018-09-19T01:52:38.224Z,50.37
2018-09-19T01:53:38.216Z,50.97
2018-09-19T01:54:38.228Z,50.97
2018-09-19T01:55:38.201Z,50.87
2018-09-19T01:56:38.180Z,50.27
2018-09-19T01:57:38.168Z,50.97
2018-09-19T01:58:38.161Z,50.97
2018-09-19T01:59:38.170Z,51.07
2018-09-19T02:00:38.141Z,50.97
2018-09-19T02:01:38.143Z,50.97
2018-09-19T02:02:38.137Z,50.97
2018-09-19T02:03:38.104Z,51.17
2018-09-19T02:04:38.115Z,50.67
2018-09-19T02:05:38.079Z,50.57
2018-09-19T02:06:38.068Z,50.67
2018-09-19T02:07:38.073Z,50.97
2018-09-19T02:08:38.069Z,50.97
2018-09-19T02:09:38.057Z,51.07
2018-09-19T02:10:38.025Z,50.97
2018-09-19T02:11:38.013Z,50.67
2018-09-19T02:12:38.004Z,50.67
2018-09-19T02:13:38.023Z,51.17
2018-09-19T02:14:38.006Z,50.57
2018-09-19T02:15:37.968Z,50.97
2018-09-19T02:16:37.957Z,50.87
2018-09-19T02:17:37.950Z,50.87
2018-09-19T02:18:37.937Z,50.87
2018-09-19T02:19:37.956Z,50.67
2018-09-19T02:20:37.918Z,50.87
2018-09-19T02:21:37.904Z,50.87
2018-09-19T02:22:37.891Z,50.67
2018-09-19T02:23:37.880Z,50.47
2018-09-19T02:24:37.890Z,50.67
2018-09-19T02:25:37.875Z,50.77
2018-09-19T02:26:37.847Z,50.87
2018-09-19T02:27:37.843Z,50.97
2018-09-19T02:28:37.923Z,50.99
2018-09-19T02:29:37.834Z,50.57
2018-09-19T02:30:37.804Z,50.57
2018-09-19T02:31:37.804Z,50.47
2018-09-19T02:32:37.784Z,50.87
2018-09-19T02:33:37.792Z,51.17
2018-09-19T02:34:37.761Z,50.67
2018-09-19T02:35:37.770Z,50.67
2018-09-19T02:36:37.735Z,50.67
2018-09-19T02:37:37.732Z,50.47
2018-09-19T02:38:37.731Z,50.67
2018-09-19T02:39:37.702Z,50.67
2018-09-19T02:40:37.713Z,50.47
2018-09-19T02:41:37.683Z,50.67
2018-09-19T02:42:37.679Z,50.57
2018-09-19T02:43:37.672Z,50.77
2018-09-19T02:44:37.646Z,50.77
2018-09-19T02:45:37.659Z,50.87
2018-09-19T02:46:37.630Z,50.77
2018-09-19T02:47:37.613Z,50.87
2018-09-19T02:48:37.602Z,50.67
2018-09-19T02:49:37.606Z,50.70
2018-09-19T02:50:37.601Z,51.17
2018-09-19T02:51:37.568Z,50.77
2018-09-19T02:52:37.558Z,50.97
2018-09-19T02:53:37.546Z,50.77
2018-09-19T02:54:37.537Z,50.87
2018-09-19T02:55:37.557Z,50.67
2018-09-19T02:56:37.512Z,50.47
2018-09-19T02:57:37.502Z,50.57
2018-09-19T02:58:37.491Z,50.87
2018-09-19T02:59:37.481Z,50.90
2018-09-19T03:00:37.490Z,50.90
2018-09-19T03:01:37.476Z,50.67
2018-09-19T03:02:37.446Z,50.87
2018-09-19T03:03:37.435Z,50.97
2018-09-19T03:04:37.424Z,50.97
2018-09-19T03:05:37.436Z,50.97
2018-09-19T03:06:37.402Z,50.67
2018-09-19T03:07:37.403Z,50.79
2018-09-19T03:08:37.383Z,50.47
2018-09-19T03:09:37.373Z,50.99
2018-09-19T03:10:37.379Z,50.77
2018-09-19T03:11:37.348Z,50.97
2018-09-19T03:12:37.335Z,50.90
2018-09-19T03:13:37.336Z,51.07
2018-09-19T03:14:37.313Z,50.97
2018-09-19T03:15:37.326Z,51.10
2018-09-19T03:16:37.290Z,50.90
2018-09-19T03:17:37.443Z,50.97
2018-09-19T03:18:37.270Z,50.57
2018-09-19T03:19:37.272Z,51.07
2018-09-19T03:20:37.270Z,51.10
2018-09-19T03:21:37.235Z,50.87
2018-09-19T03:22:37.223Z,49.90
2018-09-19T03:23:37.235Z,50.27
2018-09-19T03:24:37.210Z,50.60
2018-09-19T03:25:37.206Z,50.79
2018-09-19T03:26:37.202Z,50.97
2018-09-19T03:27:37.169Z,50.99
2018-09-19T03:28:37.157Z,50.49
2018-09-19T03:29:37.146Z,50.49
2018-09-19T03:30:37.138Z,50.99
2018-09-19T03:31:37.158Z,50.60
2018-09-19T03:32:37.118Z,50.47
2018-09-19T03:33:37.104Z,50.10
2018-09-19T03:34:37.091Z,50.60
2018-09-19T03:35:37.081Z,50.60
2018-09-19T03:36:37.092Z,50.30
2018-09-19T03:37:37.072Z,50.57
2018-09-19T03:38:37.047Z,50.60
2018-09-19T03:39:37.037Z,50.60
2018-09-19T03:40:37.065Z,50.99
2018-09-19T03:41:37.039Z,50.30
2018-09-19T03:42:37.000Z,50.30
2018-09-19T03:43:37.003Z,50.60
2018-09-19T03:44:36.983Z,50.70
2018-09-19T03:45:36.986Z,50.99
2018-09-19T03:46:36.978Z,50.60
2018-09-19T03:47:36.945Z,50.30
2018-09-19T03:48:36.934Z,50.27
2018-09-19T03:49:36.930Z,50.49
2018-09-19T03:50:36.912Z,50.60
2018-09-19T03:51:36.926Z,50.60
2018-09-19T03:52:36.889Z,50.30
2018-09-19T03:53:36.877Z,50.60
2018-09-19T03:54:36.867Z,50.79
2018-09-19T03:55:36.869Z,50.79
2018-09-19T03:56:36.868Z,50.49
2018-09-19T03:57:36.835Z,50.30
2018-09-19T03:58:36.828Z,50.30
2018-09-19T03:59:36.812Z,50.30
2018-09-19T04:00:36.801Z,50.99
2018-09-19T04:01:36.824Z,50.49
2018-09-19T04:02:36.779Z,50.60
2018-09-19T04:03:36.767Z,50.49
2018-09-19T04:04:36.757Z,50.30
2018-09-19T04:05:36.745Z,50.70
2018-09-19T04:06:36.755Z,50.49
2018-09-19T04:07:36.745Z,50.30
2018-09-19T04:08:36.711Z,50.57
2018-09-19T04:09:36.703Z,50.49
2018-09-19T04:10:36.692Z,50.30
2018-09-19T04:11:36.700Z,50.77
2018-09-19T04:12:36.667Z,50.90
2018-09-19T04:13:36.669Z,50.30
2018-09-19T04:14:36.643Z,50.30
2018-09-19T04:15:36.633Z,50.30
2018-09-19T04:16:36.643Z,50.70
2018-09-19T04:17:36.648Z,50.30
2018-09-19T04:18:36.610Z,50.47
2018-09-19T04:19:36.590Z,50.30
2018-09-19T04:20:36.580Z,50.30
2018-09-19T04:21:36.595Z,50.40
2018-09-19T04:22:36.556Z,50.30
2018-09-19T04:23:36.544Z,50.30
2018-09-19T04:24:36.543Z,50.47
2018-09-19T04:25:36.529Z,51.10
2018-09-19T04:26:36.532Z,51.07
2018-09-19T04:27:36.500Z,50.40
2018-09-19T04:28:36.493Z,50.99
2018-09-19T04:29:36.478Z,50.30
2018-09-19T04:30:36.477Z,51.29
2018-09-19T04:31:36.477Z,50.47
2018-09-19T04:32:36.444Z,50.40
2018-09-19T04:33:36.435Z,50.70
2018-09-19T04:34:36.432Z,50.40
2018-09-19T04:35:36.411Z,50.70
2018-09-19T04:36:36.436Z,50.30
2018-09-19T04:37:36.388Z,50.47
2018-09-19T04:38:36.380Z,50.30
2018-09-19T04:39:36.367Z,50.40
2018-09-19T04:40:36.361Z,50.49
2018-09-19T04:41:36.368Z,50.37
2018-09-19T04:42:36.350Z,50.30
2018-09-19T04:43:36.323Z,51.10
2018-09-19T04:44:36.315Z,50.49
2018-09-19T04:45:36.299Z,50.30
2018-09-19T04:46:36.314Z,50.49
2018-09-19T04:47:36.278Z,51.10
2018-09-19T04:48:36.276Z,50.90
2018-09-19T04:49:36.269Z,50.49
2018-09-19T04:50:36.251Z,50.40
2018-09-19T04:51:36.353Z,50.30
2018-09-19T04:52:36.224Z,50.30
2018-09-19T04:53:36.218Z,50.79
2018-09-19T04:54:36.237Z,50.30
2018-09-19T04:55:36.188Z,50.40
2018-09-19T04:56:36.176Z,50.49
2018-09-19T04:57:36.187Z,51.29
2018-09-19T04:58:36.157Z,50.30
2018-09-19T04:59:36.144Z,50.30
2018-09-19T05:00:36.141Z,50.79
2018-09-19T05:01:36.122Z,51.10
2018-09-19T05:02:36.135Z,51.29
2018-09-19T05:03:36.098Z,50.49
2018-09-19T05:04:36.089Z,50.49
2018-09-19T05:05:36.130Z,51.20
2018-09-19T05:06:36.082Z,50.49
2018-09-19T05:07:36.077Z,50.79
2018-09-19T05:08:36.047Z,51.29
2018-09-19T05:09:36.072Z,51.40
2018-09-19T05:10:36.027Z,50.49
2018-09-19T05:11:36.010Z,51.10
2018-09-19T05:12:36.246Z,50.30
2018-09-19T05:13:35.990Z,50.70
2018-09-19T05:14:35.976Z,50.90
2018-09-19T05:15:35.966Z,51.29
2018-09-19T05:16:35.953Z,51.50
2018-09-19T05:17:35.963Z,51.32
2018-09-19T05:18:35.937Z,51.84
2018-09-19T05:19:35.929Z,52.14
2018-09-19T05:20:35.915Z,52.84
2018-09-19T05:21:35.897Z,52.57
2018-09-19T05:22:35.913Z,53.27
2018-09-19T05:23:35.875Z,53.79
2018-09-19T05:24:35.863Z,53.89
2018-09-19T05:25:35.861Z,53.89
2018-09-19T05:26:35.846Z,54.62
2018-09-19T05:27:35.858Z,54.12
2018-09-19T05:28:35.826Z,54.12
2018-09-19T05:29:35.815Z,54.52
2018-09-19T05:30:35.798Z,54.14
2018-09-19T05:31:35.855Z,54.14
2018-09-19T05:32:35.795Z,54.64
2018-09-19T05:33:35.762Z,54.64
2018-09-19T05:34:35.759Z,54.74
2018-09-19T05:35:35.748Z,55.15
2018-09-19T05:36:35.730Z,55.65
2018-09-19T05:37:35.739Z,55.47
2018-09-19T05:38:35.708Z,55.35
2018-09-19T05:39:35.695Z,55.74
2018-09-19T05:40:35.690Z,55.67
2018-09-19T05:41:35.674Z,55.94
2018-09-19T05:42:35.691Z,55.74
2018-09-19T05:43:35.650Z,56.24
2018-09-19T05:44:35.640Z,55.65
2018-09-19T05:45:35.630Z,55.85
2018-09-19T05:46:35.657Z,55.85
2018-09-19T05:47:35.637Z,55.44
2018-09-19T05:48:35.598Z,56.05
2018-09-19T05:49:35.591Z,56.05
2018-09-19T05:50:35.584Z,55.44
2018-09-19T05:51:35.561Z,55.35
2018-09-19T05:52:35.570Z,55.55
2018-09-19T05:53:35.538Z,56.15
2018-09-19T05:54:35.639Z,56.55
2018-09-19T05:55:35.516Z,56.05
2018-09-19T05:56:35.509Z,55.94
2018-09-19T05:57:35.531Z,56.67
2018-09-19T05:58:35.484Z,56.17
2018-09-19T05:59:35.471Z,56.55
2018-09-19T06:00:35.577Z,56.65
2018-09-19T06:01:35.448Z,56.55
2018-09-19T06:02:35.478Z,56.15
2018-09-19T06:03:35.426Z,56.24
2018-09-19T06:04:35.414Z,57.45
2018-09-19T06:05:35.404Z,57.57
2018-09-19T06:06:35.393Z,57.57
2018-09-19T06:07:35.402Z,57.98
2018-09-19T06:08:35.418Z,58.07
2018-09-19T06:09:35.362Z,58.07
2018-09-19T06:10:35.358Z,57.87
2018-09-19T06:11:35.337Z,58.68
2018-09-19T06:12:35.346Z,58.61
2018-09-19T06:13:35.339Z,59.61
2018-09-19T06:14:35.302Z,59.50
2018-09-19T06:15:35.299Z,60.01
2018-09-19T06:16:35.287Z,59.61
2018-09-19T06:17:35.288Z,59.61
2018-09-19T06:18:35.260Z,60.01
2018-09-19T06:19:35.284Z,60.41
2018-09-19T06:20:35.237Z,60.31
2018-09-19T06:21:35.228Z,60.53
2018-09-19T06:22:35.237Z,60.64
2018-09-19T06:23:35.201Z,60.51
2018-09-19T06:24:35.191Z,60.44
2018-09-19T06:25:35.183Z,60.94
2018-09-19T06:26:35.168Z,60.74
2018-09-19T06:27:35.189Z,61.04
2018-09-19T06:28:35.147Z,61.04
2018-09-19T06:29:35.136Z,61.04
2018-09-19T06:30:35.127Z,61.54
2018-09-19T06:31:35.112Z,61.44
2018-09-19T06:32:35.122Z,61.34
2018-09-19T06:33:35.111Z,61.24
2018-09-19T06:34:35.088Z,61.84
2018-09-19T06:35:35.072Z,61.74
2018-09-19T06:36:35.065Z,61.44
2018-09-19T06:37:35.096Z,61.74
2018-09-19T06:38:35.034Z,61.74
2018-09-19T06:39:35.023Z,61.74
2018-09-19T06:40:35.149Z,61.64
2018-09-19T06:41:35.003Z,61.54
2018-09-19T06:42:34.991Z,61.54
2018-09-19T06:43:35.016Z,61.44
2018-09-19T06:44:34.968Z,61.44
2018-09-19T06:45:35.004Z,62.24
2018-09-19T06:46:34.947Z,62.14
2018-09-19T06:47:34.963Z,62.04
2018-09-19T06:48:34.944Z,62.14
2018-09-19T06:49:34.970Z,62.21
2018-09-19T06:50:34.903Z,62.21
2018-09-19T06:51:34.962Z,62.34
2018-09-19T06:52:34.968Z,62.01
2018-09-19T06:53:34.890Z,62.11
2018-09-19T06:54:34.856Z,62.31
2018-09-19T06:55:34.853Z,62.01
2018-09-19T06:56:34.833Z,62.34
2018-09-19T06:57:34.840Z,62.11
2018-09-19T06:58:34.836Z,61.91
2018-09-19T06:59:34.853Z,61.41
2018-09-19T07:00:34.789Z,60.81
2018-09-19T07:01:34.777Z,60.91
2018-09-19T07:02:34.767Z,61.41
2018-09-19T07:03:34.851Z,60.81
2018-09-19T07:04:34.751Z,60.68
2018-09-19T07:05:34.763Z,60.48
2018-09-19T07:06:34.728Z,60.48
2018-09-19T07:07:34.711Z,59.58
2018-09-19T07:08:34.723Z,59.88
2018-09-19T07:09:34.711Z,59.88
2018-09-19T07:10:34.712Z,59.48
2018-09-19T07:11:34.688Z,58.68
2018-09-19T07:12:34.657Z,58.85
2018-09-19T07:13:34.663Z,60.15
2018-09-19T07:14:34.638Z,59.65
2018-09-19T07:15:34.632Z,59.75
2018-09-19T07:16:34.610Z,59.15
2018-09-19T07:17:34.599Z,59.45
2018-09-19T07:18:34.606Z,58.75
2018-09-19T07:19:34.583Z,59.55
2018-09-19T07:20:34.587Z,58.92
2018-09-19T07:21:34.552Z,59.42
2018-09-19T07:22:34.542Z,59.82
2018-09-19T07:23:34.554Z,59.52
2018-09-19T07:24:34.519Z,58.82
2018-09-19T07:25:34.510Z,58.82
2018-09-19T07:26:34.503Z,57.92
2018-09-19T07:27:34.486Z,59.32
2018-09-19T07:28:34.522Z,59.82
2018-09-19T07:29:34.464Z,60.32
2018-09-19T07:30:34.451Z,60.39
2018-09-19T07:31:34.448Z,60.42
2018-09-19T07:32:34.478Z,60.82
2018-09-19T07:33:34.443Z,60.82
2018-09-19T07:34:34.407Z,60.92
2018-09-19T07:35:34.420Z,61.42
2018-09-19T07:36:34.408Z,60.92
2018-09-19T07:37:34.377Z,60.62
2018-09-19T07:38:34.381Z,60.32
2018-09-19T07:39:34.352Z,60.29
2018-09-19T07:40:34.358Z,60.42
2018-09-19T07:41:34.345Z,60.39
2018-09-19T07:42:34.320Z,60.79
2018-09-19T07:43:34.427Z,60.49
2018-09-19T07:44:34.294Z,61.12
2018-09-19T07:45:34.283Z,61.19
2018-09-19T07:46:34.339Z,60.69
2018-09-19T07:47:34.311Z,60.99
2018-09-19T07:48:34.274Z,60.99
2018-09-19T07:49:34.238Z,61.49
2018-09-19T07:50:34.271Z,61.49
2018-09-19T07:51:34.219Z,61.59
2018-09-19T07:52:34.205Z,61.79
2018-09-19T07:53:34.217Z,61.40
2018-09-19T07:54:34.213Z,61.99
2018-09-19T07:55:34.187Z,61.40
2018-09-19T07:56:34.160Z,60.89
2018-09-19T07:57:34.149Z,61.19
2018-09-19T07:58:34.160Z,61.59
2018-09-19T07:59:34.129Z,61.29
2018-09-19T08:00:34.210Z,61.40
2018-09-19T08:01:34.133Z,61.40
2018-09-19T08:02:34.092Z,61.57
2018-09-19T08:03:34.105Z,61.16
2018-09-19T08:04:34.072Z,61.57
2018-09-19T08:05:34.061Z,61.46
2018-09-19T08:06:34.057Z,61.26
2018-09-19T08:07:34.048Z,61.16
2018-09-19T08:08:34.049Z,60.77
2018-09-19T08:09:34.019Z,61.57
2018-09-19T08:10:34.007Z,61.87
2018-09-19T08:11:33.993Z,61.36
2018-09-19T08:12:33.992Z,60.77
2018-09-19T08:13:33.994Z,60.36
2018-09-19T08:14:33.968Z,60.36
2018-09-19T08:15:33.953Z,60.36
2018-09-19T08:16:33.936Z,60.46
2018-09-19T08:17:33.976Z,60.27
2018-09-19T08:18:33.915Z,60.33
2018-09-19T08:19:33.925Z,60.14
2018-09-19T08:20:33.896Z,59.94
2018-09-19T08:21:33.882Z,59.34
2018-09-19T08:22:33.949Z,59.41
2018-09-19T08:23:33.861Z,59.64
2018-09-19T08:24:33.892Z,59.91
2018-09-19T08:25:33.839Z,59.21
2018-09-19T08:26:33.824Z,59.31
2018-09-19T08:27:33.813Z,59.01
2018-09-19T08:28:33.802Z,58.81
2018-09-19T08:29:33.838Z,58.41
2018-09-19T08:30:33.788Z,58.51
2018-09-19T08:31:33.770Z,58.21
2018-09-19T08:32:33.760Z,58.61
2018-09-19T08:33:33.745Z,57.61
2018-09-19T08:34:33.756Z,58.01
2018-09-19T08:35:33.734Z,58.38
2018-09-19T08:36:33.716Z,57.78
2018-09-19T08:37:33.703Z,57.78
2018-09-19T08:38:33.687Z,57.98
2018-09-19T08:39:33.698Z,57.78
2018-09-19T08:40:33.668Z,57.68
2018-09-19T08:41:33.964Z,57.39
2018-09-19T08:42:33.644Z,57.58
2018-09-19T08:43:33.632Z,57.48
2018-09-19T08:44:33.664Z,57.48
2018-09-19T08:45:33.617Z,57.48
2018-09-19T08:46:33.599Z,57.28
2018-09-19T08:47:33.592Z,56.88
2018-09-19T08:48:33.576Z,57.68
2018-09-19T08:49:33.611Z,57.39
2018-09-19T08:50:33.581Z,58.15
2018-09-19T08:51:33.546Z,58.06
2018-09-19T08:52:33.563Z,58.25
2018-09-19T08:53:33.527Z,57.95
2018-09-19T08:54:33.529Z,57.76
2018-09-19T08:55:33.501Z,57.65
2018-09-19T08:56:33.490Z,57.95
2018-09-19T08:57:33.475Z,57.56
2018-09-19T08:58:33.466Z,57.46
2018-09-19T08:59:33.476Z,58.25
2018-09-19T09:00:33.475Z,58.36
2018-09-19T09:01:33.430Z,57.95
2018-09-19T09:02:33.420Z,58.06
2018-09-19T09:03:33.462Z,58.15
2018-09-19T09:04:33.416Z,57.65
2018-09-19T09:05:33.387Z,57.76
2018-09-19T09:06:33.384Z,58.65
2018-09-19T09:07:33.366Z,57.46
2018-09-19T09:08:33.354Z,58.06
2018-09-19T09:09:33.363Z,57.46
2018-09-19T09:10:33.331Z,57.33
2018-09-19T09:11:33.317Z,57.76
2018-09-19T09:12:33.366Z,57.73
2018-09-19T09:13:33.298Z,57.46
2018-09-19T09:14:33.308Z,57.43
2018-09-19T09:15:33.272Z,58.03
2018-09-19T09:16:33.272Z,57.15
2018-09-19T09:17:33.252Z,57.63
2018-09-19T09:18:33.240Z,57.76
2018-09-19T09:19:33.274Z,57.56
2018-09-19T09:20:33.235Z,57.23
2018-09-19T09:21:33.205Z,57.33
2018-09-19T09:22:33.194Z,57.73
2018-09-19T09:23:33.186Z,57.23
2018-09-19T09:24:33.194Z,57.13
2018-09-19T09:25:33.161Z,57.43
2018-09-19T09:26:33.156Z,57.13
2018-09-19T09:27:33.184Z,57.33
2018-09-19T09:28:33.150Z,57.03
2018-09-19T09:29:33.139Z,57.43
2018-09-19T09:30:33.148Z,57.13
2018-09-19T09:31:33.101Z,57.03
2018-09-19T09:32:33.082Z,57.03
2018-09-19T09:33:33.087Z,56.03
2018-09-19T09:34:33.080Z,55.91
2018-09-19T09:35:33.050Z,56.40
2018-09-19T09:36:33.038Z,56.60
2018-09-19T09:37:33.035Z,56.30
2018-09-19T09:38:33.021Z,56.40
2018-09-19T09:39:33.023Z,56.01
2018-09-19T09:40:33.114Z,55.80
2018-09-19T09:41:33.032Z,55.91
2018-09-19T09:42:32.973Z,55.80
2018-09-19T09:43:33.009Z,56.40
2018-09-19T09:44:32.985Z,56.01
2018-09-19T09:45:32.939Z,56.30
2018-09-19T09:46:32.926Z,56.60
2018-09-19T09:47:32.917Z,55.78
2018-09-19T09:48:32.902Z,55.71
2018-09-19T09:49:32.913Z,55.71
2018-09-19T09:50:32.890Z,54.98
2018-09-19T09:51:32.876Z,54.91
2018-09-19T09:52:32.860Z,53.99
2018-09-19T09:54:32.857Z,53.99
2018-09-19T09:55:32.825Z,54.08
2018-09-19T09:56:32.823Z,53.89
2018-09-19T09:57:32.804Z,54.19
2018-09-19T09:58:32.791Z,54.26
2018-09-19T09:59:32.783Z,53.49
2018-09-19T10:00:32.790Z,54.28
2018-09-19T10:01:32.759Z,54.16
2018-09-19T10:02:32.753Z,53.56
2018-09-19T10:03:32.736Z,53.56
2018-09-19T10:04:32.724Z,53.56
2018-09-19T10:05:32.735Z,52.97
2018-09-19T10:06:32.738Z,53.29
2018-09-19T10:07:32.690Z,52.97
2018-09-19T10:08:32.679Z,53.46
2018-09-19T10:09:32.699Z,53.56
2018-09-19T10:10:32.678Z,54.16
2018-09-19T10:11:32.661Z,53.96
2018-09-19T10:12:32.637Z,54.06
2018-09-19T10:13:32.659Z,53.56
2018-09-19T10:14:32.612Z,53.66
2018-09-19T10:15:32.625Z,54.56
2018-09-19T10:16:35.750Z,53.56
2018-09-19T10:17:32.832Z,53.96
2018-09-19T10:18:32.781Z,53.86
2018-09-19T10:19:32.586Z,53.86
2018-09-19T10:20:34.596Z,53.49
2018-09-19T10:21:33.624Z,54.19
2018-09-19T10:22:32.572Z,53.66
2018-09-19T10:23:32.792Z,53.99
2018-09-19T10:24:32.503Z,53.99
2018-09-19T10:25:32.512Z,53.78
2018-09-19T10:26:32.489Z,53.59
2018-09-19T10:27:32.467Z,54.19
2018-09-19T10:28:32.456Z,53.99
2018-09-19T10:29:32.497Z,53.89
2018-09-19T10:30:32.453Z,53.99
2018-09-19T10:31:32.436Z,54.08
2018-09-19T10:32:32.412Z,53.99
2018-09-19T10:33:32.402Z,54.19
2018-09-19T10:34:32.395Z,53.69
2018-09-19T10:35:32.456Z,53.69
2018-09-19T10:36:32.367Z,53.89
2018-09-19T10:37:32.371Z,53.89
2018-09-19T10:38:32.347Z,53.59
2018-09-19T10:39:32.333Z,53.59
2018-09-19T10:40:32.342Z,53.59
2018-09-19T10:41:32.311Z,53.59
2018-09-19T10:42:32.299Z,53.49
2018-09-19T10:43:32.291Z,53.49
2018-09-19T10:44:32.281Z,53.49
2018-09-19T10:45:32.288Z,53.89
2018-09-19T10:46:32.256Z,53.78
2018-09-19T10:47:32.248Z,53.78
2018-09-19T10:48:32.235Z,53.78
2018-09-19T10:49:32.341Z,53.29
2018-09-19T10:50:32.248Z,53.59
2018-09-19T10:51:32.198Z,53.49
2018-09-19T10:52:32.190Z,53.78
2018-09-19T10:53:32.185Z,53.59
2018-09-19T10:54:32.165Z,53.69
2018-09-19T10:55:32.175Z,53.69
2018-09-19T10:56:32.150Z,53.39
2018-09-19T10:57:32.132Z,53.99
2018-09-19T10:58:32.122Z,53.59
2018-09-19T10:59:32.108Z,53.39
2018-09-19T11:00:32.119Z,53.69
2018-09-19T11:01:32.087Z,53.29
2018-09-19T11:02:32.074Z,53.78
2018-09-19T11:03:32.064Z,53.49
2018-09-19T11:04:32.054Z,53.49
2018-09-19T11:05:32.063Z,53.39
2018-09-19T11:06:32.032Z,53.78
2018-09-19T11:07:32.044Z,53.78
2018-09-19T11:08:32.011Z,54.38
2018-09-19T11:09:32.000Z,53.89
2018-09-19T11:10:32.009Z,54.19
2018-09-19T11:11:31.974Z,53.99
2018-09-19T11:12:31.963Z,53.66
2018-09-19T11:13:31.960Z,53.56
2018-09-19T11:14:31.945Z,53.66
2018-09-19T11:15:31.951Z,53.49
2018-09-19T11:16:31.920Z,53.46
2018-09-19T11:17:31.912Z,53.56
2018-09-19T11:18:31.899Z,53.56
2018-09-19T11:19:31.890Z,53.66
2018-09-19T11:20:31.903Z,53.59
2018-09-19T11:21:31.875Z,53.29
2018-09-19T11:22:31.851Z,52.89
2018-09-19T11:23:31.841Z,52.97
2018-09-19T11:24:31.830Z,53.49
2018-09-19T11:25:31.839Z,53.27
2018-09-19T11:26:31.872Z,53.36
2018-09-19T11:27:31.798Z,53.06
2018-09-19T11:28:31.788Z,53.06
2018-09-19T11:29:31.774Z,52.89
2018-09-19T11:30:31.783Z,52.97
2018-09-19T11:31:31.756Z,53.56
2018-09-19T11:32:31.740Z,52.97
2018-09-19T11:33:31.741Z,53.09
2018-09-19T11:34:31.719Z,53.06
2018-09-19T11:35:31.727Z,52.89
2018-09-19T11:36:31.697Z,52.89
2018-09-19T11:37:31.686Z,52.97
2018-09-19T11:38:31.677Z,52.99
2018-09-19T11:39:31.668Z,52.89
2018-09-19T11:40:31.662Z,51.97
2018-09-19T11:41:31.689Z,52.17
2018-09-19T11:42:31.631Z,52.39
2018-09-19T11:43:31.619Z,53.09
2018-09-19T11:44:31.608Z,52.86
2018-09-19T11:45:31.597Z,52.97
2018-09-19T11:46:31.608Z,52.86
2018-09-19T11:47:31.625Z,53.06
2018-09-19T11:48:31.571Z,53.16
2018-09-19T11:49:31.553Z,53.46
2018-09-19T11:50:31.544Z,52.97
2018-09-19T11:51:31.551Z,52.86
2018-09-19T11:52:31.524Z,52.86
2018-09-19T11:53:31.530Z,52.97
2018-09-19T11:54:31.496Z,52.97
2018-09-19T11:55:31.526Z,53.06
2018-09-19T11:56:31.500Z,52.86
2018-09-19T11:57:31.464Z,52.97
2018-09-19T11:58:31.469Z,53.39
2018-09-19T11:59:31.444Z,53.16
2018-09-19T12:00:31.433Z,53.16
2018-09-19T12:01:31.451Z,53.06
2018-09-19T12:02:31.408Z,52.86
2018-09-19T12:03:31.407Z,52.76
2018-09-19T12:04:31.390Z,53.36
2018-09-19T12:05:31.388Z,52.76
2018-09-19T12:06:31.383Z,53.27
2018-09-19T12:07:31.353Z,52.67
2018-09-19T12:08:31.347Z,53.46
2018-09-19T12:09:31.333Z,52.47
2018-09-19T12:10:31.324Z,52.37
2018-09-19T12:11:31.342Z,52.57
2018-09-19T12:12:31.320Z,53.06
2018-09-19T12:13:31.290Z,53.06
2018-09-19T12:14:31.281Z,53.27
2018-09-19T12:15:31.332Z,53.27
2018-09-19T12:16:31.273Z,53.46
2018-09-19T12:17:31.243Z,53.56
2018-09-19T12:18:31.232Z,53.27
2018-09-19T12:19:31.272Z,53.06
2018-09-19T12:20:31.208Z,53.06
2018-09-19T12:21:31.219Z,53.06
2018-09-19T12:22:31.186Z,52.97
2018-09-19T12:23:31.176Z,52.76
2018-09-19T12:24:31.164Z,52.99
2018-09-19T12:25:31.159Z,53.06
2018-09-19T12:26:31.251Z,52.97
2018-09-19T12:27:31.129Z,52.97
2018-09-19T12:28:31.119Z,52.76
2018-09-19T12:29:31.111Z,53.06
2018-09-19T12:30:31.097Z,53.06
2018-09-19T12:31:31.105Z,52.99
2018-09-19T12:32:31.076Z,52.76
2018-09-19T12:33:31.063Z,52.76
2018-09-19T12:34:31.065Z,53.09
2018-09-19T12:35:31.042Z,52.76
2018-09-19T12:36:31.055Z,52.79
2018-09-19T12:37:31.044Z,52.76
2018-09-19T12:38:31.007Z,52.47
2018-09-19T12:39:31.046Z,52.57
2018-09-19T12:40:30.995Z,52.27
2018-09-19T12:41:30.997Z,52.07
2018-09-19T12:42:30.963Z,52.17
2018-09-19T12:43:30.955Z,51.97
2018-09-19T12:44:30.942Z,52.17
2018-09-19T12:45:30.930Z,52.39
2018-09-19T12:46:30.942Z,52.19
2018-09-19T12:47:30.920Z,52.17
2018-09-19T12:48:30.920Z,52.27
2018-09-19T12:49:30.885Z,52.27
2018-09-19T12:50:30.874Z,52.67
2018-09-19T12:51:30.883Z,53.06
2018-09-19T12:52:30.855Z,53.16
2018-09-19T12:53:30.842Z,52.86